sensor_id;sensor_type;location;lat;lon;timestamp;P1;durP1;ratioP1;P2;durP2;ratioP2
12654;SDS011;6392;44.644;11.448;2022-10-23T00:00:23;14.03;;;9.80;;
12654;SDS011;6392;44.644;11.448;2022-10-23T00:02:50;18.40;;;11.03;;
12654;SDS011;6392;44.644;11.448;2022-10-23T00:05:18;16.50;;;10.33;;
12654;SDS011;6392;44.644;11.448;2022-10-23T00:07:48;18.07;;;9.87;;
12654;SDS011;6392;44.644;11.448;2022-10-23T00:10:16;18.90;;;11.83;;
12654;SDS011;6392;44.644;11.448;2022-10-23T00:12:45;20.50;;;10.73;;
12654;SDS011;6392;44.644;11.448;2022-10-23T00:15:13;17.10;;;11.27;;
12654;SDS011;6392;44.644;11.448;2022-10-23T00:17:41;19.80;;;11.03;;
12654;SDS011;6392;44.644;11.448;2022-10-23T00:20:09;13.90;;;10.40;;
12654;SDS011;6392;44.644;11.448;2022-10-23T00:22:36;19.50;;;11.27;;
12654;SDS011;6392;44.644;11.448;2022-10-23T00:25:04;17.47;;;11.67;;
12654;SDS011;6392;44.644;11.448;2022-10-23T00:27:32;16.43;;;11.40;;
12654;SDS011;6392;44.644;11.448;2022-10-23T00:30:00;16.47;;;10.67;;
12654;SDS011;6392;44.644;11.448;2022-10-23T00:32:29;21.03;;;10.57;;
12654;SDS011;6392;44.644;11.448;2022-10-23T00:34:56;16.00;;;9.83;;
12654;SDS011;6392;44.644;11.448;2022-10-23T00:37:23;16.90;;;9.93;;
12654;SDS011;6392;44.644;11.448;2022-10-23T00:39:50;16.77;;;10.87;;
12654;SDS011;6392;44.644;11.448;2022-10-23T00:42:18;16.37;;;9.60;;
12654;SDS011;6392;44.644;11.448;2022-10-23T00:45:09;12.67;;;9.93;;
12654;SDS011;6392;44.644;11.448;2022-10-23T00:47:42;19.13;;;9.93;;
12654;SDS011;6392;44.644;11.448;2022-10-23T00:50:10;14.60;;;9.30;;
12654;SDS011;6392;44.644;11.448;2022-10-23T00:52:40;15.53;;;8.93;;
12654;SDS011;6392;44.644;11.448;2022-10-23T00:55:10;13.00;;;9.00;;
12654;SDS011;6392;44.644;11.448;2022-10-23T00:57:40;13.83;;;9.17;;
12654;SDS011;6392;44.644;11.448;2022-10-23T01:00:12;14.40;;;8.40;;
12654;SDS011;6392;44.644;11.448;2022-10-23T01:02:41;15.73;;;9.23;;
12654;SDS011;6392;44.644;11.448;2022-10-23T01:05:08;16.97;;;8.67;;
12654;SDS011;6392;44.644;11.448;2022-10-23T01:07:37;15.30;;;9.53;;
12654;SDS011;6392;44.644;11.448;2022-10-23T01:10:17;15.03;;;9.23;;
12654;SDS011;6392;44.644;11.448;2022-10-23T01:12:53;13.97;;;8.20;;
12654;SDS011;6392;44.644;11.448;2022-10-23T01:15:28;14.00;;;9.20;;
12654;SDS011;6392;44.644;11.448;2022-10-23T01:18:01;14.30;;;8.67;;
12654;SDS011;6392;44.644;11.448;2022-10-23T01:20:38;15.00;;;8.27;;
12654;SDS011;6392;44.644;11.448;2022-10-23T01:23:13;12.10;;;6.83;;
12654;SDS011;6392;44.644;11.448;2022-10-23T01:29:05;12.90;;;8.07;;
12654;SDS011;6392;44.644;11.448;2022-10-23T01:31:42;11.83;;;6.93;;
12654;SDS011;6392;44.644;11.448;2022-10-23T01:34:15;13.17;;;7.97;;
12654;SDS011;6392;44.644;11.448;2022-10-23T01:36:46;11.90;;;7.60;;
12654;SDS011;6392;44.644;11.448;2022-10-23T01:39:17;12.70;;;7.17;;
12654;SDS011;6392;44.644;11.448;2022-10-23T01:41:47;11.33;;;7.20;;
12654;SDS011;6392;44.644;11.448;2022-10-23T01:44:21;12.37;;;7.10;;
12654;SDS011;6392;44.644;11.448;2022-10-23T01:46:51;11.67;;;7.43;;
12654;SDS011;6392;44.644;11.448;2022-10-23T01:49:20;11.57;;;7.70;;
12654;SDS011;6392;44.644;11.448;2022-10-23T01:51:50;13.00;;;7.90;;
12654;SDS011;6392;44.644;11.448;2022-10-23T01:54:22;12.03;;;7.40;;
12654;SDS011;6392;44.644;11.448;2022-10-23T01:56:53;11.57;;;7.17;;
12654;SDS011;6392;44.644;11.448;2022-10-23T01:59:24;15.27;;;8.37;;
12654;SDS011;6392;44.644;11.448;2022-10-23T02:01:56;14.00;;;7.93;;
12654;SDS011;6392;44.644;11.448;2022-10-23T02:04:26;11.97;;;8.33;;
12654;SDS011;6392;44.644;11.448;2022-10-23T02:06:56;11.50;;;7.67;;
12654;SDS011;6392;44.644;11.448;2022-10-23T02:09:23;19.00;;;8.60;;
12654;SDS011;6392;44.644;11.448;2022-10-23T02:11:52;13.40;;;8.10;;
12654;SDS011;6392;44.644;11.448;2022-10-23T02:14:28;12.87;;;7.97;;
12654;SDS011;6392;44.644;11.448;2022-10-23T02:17:10;13.77;;;8.03;;
12654;SDS011;6392;44.644;11.448;2022-10-23T02:19:42;14.60;;;8.63;;
12654;SDS011;6392;44.644;11.448;2022-10-23T02:22:16;13.23;;;8.07;;
12654;SDS011;6392;44.644;11.448;2022-10-23T02:24:49;12.80;;;8.10;;
12654;SDS011;6392;44.644;11.448;2022-10-23T02:27:20;13.87;;;7.57;;
12654;SDS011;6392;44.644;11.448;2022-10-23T02:29:52;13.73;;;8.50;;
12654;SDS011;6392;44.644;11.448;2022-10-23T02:32:23;13.70;;;7.83;;
12654;SDS011;6392;44.644;11.448;2022-10-23T02:34:53;12.33;;;8.17;;
12654;SDS011;6392;44.644;11.448;2022-10-23T02:37:21;13.33;;;8.37;;
12654;SDS011;6392;44.644;11.448;2022-10-23T02:39:49;14.53;;;8.07;;
12654;SDS011;6392;44.644;11.448;2022-10-23T02:42:17;12.37;;;7.70;;
12654;SDS011;6392;44.644;11.448;2022-10-23T02:44:53;15.90;;;8.50;;
12654;SDS011;6392;44.644;11.448;2022-10-23T02:47:29;14.00;;;8.27;;
12654;SDS011;6392;44.644;11.448;2022-10-23T02:50:03;16.00;;;9.80;;
12654;SDS011;6392;44.644;11.448;2022-10-23T02:52:35;15.30;;;9.33;;
12654;SDS011;6392;44.644;11.448;2022-10-23T02:55:13;15.90;;;9.70;;
12654;SDS011;6392;44.644;11.448;2022-10-23T02:57:48;18.40;;;11.07;;
12654;SDS011;6392;44.644;11.448;2022-10-23T03:00:22;17.63;;;11.80;;
12654;SDS011;6392;44.644;11.448;2022-10-23T03:02:52;20.60;;;11.67;;
12654;SDS011;6392;44.644;11.448;2022-10-23T03:05:23;19.43;;;12.53;;
12654;SDS011;6392;44.644;11.448;2022-10-23T03:07:53;21.23;;;12.10;;
12654;SDS011;6392;44.644;11.448;2022-10-23T03:10:20;21.33;;;13.30;;
12654;SDS011;6392;44.644;11.448;2022-10-23T03:12:47;22.90;;;13.23;;
12654;SDS011;6392;44.644;11.448;2022-10-23T03:15:15;24.43;;;14.40;;
12654;SDS011;6392;44.644;11.448;2022-10-23T03:17:43;25.30;;;14.70;;
12654;SDS011;6392;44.644;11.448;2022-10-23T03:20:10;25.60;;;14.00;;
12654;SDS011;6392;44.644;11.448;2022-10-23T03:22:38;25.47;;;15.00;;
12654;SDS011;6392;44.644;11.448;2022-10-23T03:25:05;24.93;;;14.47;;
12654;SDS011;6392;44.644;11.448;2022-10-23T03:27:33;25.50;;;15.40;;
12654;SDS011;6392;44.644;11.448;2022-10-23T03:30:00;30.27;;;17.13;;
12654;SDS011;6392;44.644;11.448;2022-10-23T03:32:27;25.17;;;15.53;;
12654;SDS011;6392;44.644;11.448;2022-10-23T03:34:56;27.97;;;16.60;;
12654;SDS011;6392;44.644;11.448;2022-10-23T03:37:23;31.73;;;16.60;;
12654;SDS011;6392;44.644;11.448;2022-10-23T03:39:50;28.87;;;15.80;;
12654;SDS011;6392;44.644;11.448;2022-10-23T03:42:17;28.33;;;16.97;;
12654;SDS011;6392;44.644;11.448;2022-10-23T03:44:44;30.50;;;17.30;;
12654;SDS011;6392;44.644;11.448;2022-10-23T03:47:11;31.63;;;17.13;;
12654;SDS011;6392;44.644;11.448;2022-10-23T03:49:39;35.13;;;17.27;;
12654;SDS011;6392;44.644;11.448;2022-10-23T03:52:07;29.53;;;17.00;;
12654;SDS011;6392;44.644;11.448;2022-10-23T03:54:34;28.93;;;16.23;;
12654;SDS011;6392;44.644;11.448;2022-10-23T03:57:01;31.13;;;16.70;;
12654;SDS011;6392;44.644;11.448;2022-10-23T03:59:29;28.30;;;16.90;;
12654;SDS011;6392;44.644;11.448;2022-10-23T04:01:56;29.67;;;17.53;;
12654;SDS011;6392;44.644;11.448;2022-10-23T04:04:23;30.83;;;16.17;;
12654;SDS011;6392;44.644;11.448;2022-10-23T04:06:50;27.87;;;17.87;;
12654;SDS011;6392;44.644;11.448;2022-10-23T04:09:18;30.60;;;17.40;;
12654;SDS011;6392;44.644;11.448;2022-10-23T04:11:45;28.90;;;17.27;;
12654;SDS011;6392;44.644;11.448;2022-10-23T04:14:12;29.20;;;17.70;;
12654;SDS011;6392;44.644;11.448;2022-10-23T04:16:40;30.43;;;16.90;;
12654;SDS011;6392;44.644;11.448;2022-10-23T04:19:07;30.70;;;18.10;;
12654;SDS011;6392;44.644;11.448;2022-10-23T04:21:34;31.33;;;17.77;;
12654;SDS011;6392;44.644;11.448;2022-10-23T04:24:01;30.63;;;17.80;;
12654;SDS011;6392;44.644;11.448;2022-10-23T04:26:30;30.83;;;18.53;;
12654;SDS011;6392;44.644;11.448;2022-10-23T04:28:57;28.03;;;17.50;;
12654;SDS011;6392;44.644;11.448;2022-10-23T04:31:24;34.60;;;17.93;;
12654;SDS011;6392;44.644;11.448;2022-10-23T04:33:51;27.90;;;16.50;;
12654;SDS011;6392;44.644;11.448;2022-10-23T04:36:18;30.23;;;16.87;;
12654;SDS011;6392;44.644;11.448;2022-10-23T04:38:45;24.33;;;15.87;;
12654;SDS011;6392;44.644;11.448;2022-10-23T04:41:13;26.50;;;15.93;;
12654;SDS011;6392;44.644;11.448;2022-10-23T04:43:41;24.47;;;14.90;;
12654;SDS011;6392;44.644;11.448;2022-10-23T04:46:08;25.00;;;16.13;;
12654;SDS011;6392;44.644;11.448;2022-10-23T04:48:35;23.90;;;15.80;;
12654;SDS011;6392;44.644;11.448;2022-10-23T04:51:04;21.77;;;14.93;;
12654;SDS011;6392;44.644;11.448;2022-10-23T04:53:31;27.73;;;14.87;;
12654;SDS011;6392;44.644;11.448;2022-10-23T04:55:59;22.60;;;14.27;;
12654;SDS011;6392;44.644;11.448;2022-10-23T04:58:26;24.33;;;14.70;;
12654;SDS011;6392;44.644;11.448;2022-10-23T05:00:56;22.83;;;15.33;;
12654;SDS011;6392;44.644;11.448;2022-10-23T05:03:23;24.50;;;15.73;;
12654;SDS011;6392;44.644;11.448;2022-10-23T05:05:51;21.33;;;14.40;;
12654;SDS011;6392;44.644;11.448;2022-10-23T05:08:20;23.50;;;15.90;;
12654;SDS011;6392;44.644;11.448;2022-10-23T05:10:47;26.63;;;15.77;;
12654;SDS011;6392;44.644;11.448;2022-10-23T05:13:15;22.63;;;15.00;;
12654;SDS011;6392;44.644;11.448;2022-10-23T05:15:44;25.97;;;15.87;;
12654;SDS011;6392;44.644;11.448;2022-10-23T05:18:14;25.93;;;16.43;;
12654;SDS011;6392;44.644;11.448;2022-10-23T05:20:45;25.77;;;16.13;;
12654;SDS011;6392;44.644;11.448;2022-10-23T05:23:15;22.23;;;15.00;;
12654;SDS011;6392;44.644;11.448;2022-10-23T05:25:46;24.40;;;15.33;;
12654;SDS011;6392;44.644;11.448;2022-10-23T05:28:13;22.13;;;13.33;;
12654;SDS011;6392;44.644;11.448;2022-10-23T05:30:40;20.30;;;13.43;;
12654;SDS011;6392;44.644;11.448;2022-10-23T05:33:08;25.47;;;16.03;;
12654;SDS011;6392;44.644;11.448;2022-10-23T05:35:37;25.13;;;16.93;;
12654;SDS011;6392;44.644;11.448;2022-10-23T05:38:06;23.47;;;14.50;;
12654;SDS011;6392;44.644;11.448;2022-10-23T05:40:34;21.37;;;14.10;;
12654;SDS011;6392;44.644;11.448;2022-10-23T05:43:01;24.43;;;14.57;;
12654;SDS011;6392;44.644;11.448;2022-10-23T05:45:28;23.53;;;14.20;;
12654;SDS011;6392;44.644;11.448;2022-10-23T05:47:55;24.20;;;14.73;;
12654;SDS011;6392;44.644;11.448;2022-10-23T05:50:22;26.37;;;14.67;;
12654;SDS011;6392;44.644;11.448;2022-10-23T05:52:50;24.33;;;15.20;;
12654;SDS011;6392;44.644;11.448;2022-10-23T05:55:17;24.87;;;16.20;;
12654;SDS011;6392;44.644;11.448;2022-10-23T05:57:44;22.47;;;14.57;;
12654;SDS011;6392;44.644;11.448;2022-10-23T06:00:12;26.50;;;16.20;;
12654;SDS011;6392;44.644;11.448;2022-10-23T06:02:39;23.43;;;15.00;;
12654;SDS011;6392;44.644;11.448;2022-10-23T06:05:07;28.17;;;16.00;;
12654;SDS011;6392;44.644;11.448;2022-10-23T06:07:34;30.13;;;16.43;;
12654;SDS011;6392;44.644;11.448;2022-10-23T06:10:02;31.40;;;18.63;;
12654;SDS011;6392;44.644;11.448;2022-10-23T06:12:30;32.53;;;19.37;;
12654;SDS011;6392;44.644;11.448;2022-10-23T06:14:57;28.30;;;17.10;;
12654;SDS011;6392;44.644;11.448;2022-10-23T06:17:24;32.20;;;18.87;;
12654;SDS011;6392;44.644;11.448;2022-10-23T06:19:52;29.70;;;17.10;;
12654;SDS011;6392;44.644;11.448;2022-10-23T06:22:24;25.83;;;15.60;;
12654;SDS011;6392;44.644;11.448;2022-10-23T06:24:52;25.23;;;16.30;;
12654;SDS011;6392;44.644;11.448;2022-10-23T06:27:20;25.53;;;15.47;;
12654;SDS011;6392;44.644;11.448;2022-10-23T06:29:48;22.07;;;14.00;;
12654;SDS011;6392;44.644;11.448;2022-10-23T06:32:15;23.53;;;15.10;;
12654;SDS011;6392;44.644;11.448;2022-10-23T06:34:42;22.07;;;14.10;;
12654;SDS011;6392;44.644;11.448;2022-10-23T06:37:09;24.83;;;15.27;;
12654;SDS011;6392;44.644;11.448;2022-10-23T06:39:36;23.30;;;13.47;;
12654;SDS011;6392;44.644;11.448;2022-10-23T06:42:04;27.17;;;15.43;;
12654;SDS011;6392;44.644;11.448;2022-10-23T06:44:33;25.47;;;14.47;;
12654;SDS011;6392;44.644;11.448;2022-10-23T06:47:00;27.13;;;15.27;;
12654;SDS011;6392;44.644;11.448;2022-10-23T06:49:27;26.97;;;14.80;;
12654;SDS011;6392;44.644;11.448;2022-10-23T06:51:54;24.13;;;14.50;;
12654;SDS011;6392;44.644;11.448;2022-10-23T06:54:21;22.60;;;14.27;;
12654;SDS011;6392;44.644;11.448;2022-10-23T06:56:48;21.43;;;13.63;;
12654;SDS011;6392;44.644;11.448;2022-10-23T06:59:15;25.17;;;14.13;;
12654;SDS011;6392;44.644;11.448;2022-10-23T07:01:45;24.43;;;14.57;;
12654;SDS011;6392;44.644;11.448;2022-10-23T07:04:12;24.10;;;14.30;;
12654;SDS011;6392;44.644;11.448;2022-10-23T07:06:39;30.93;;;14.50;;
12654;SDS011;6392;44.644;11.448;2022-10-23T07:09:06;27.10;;;15.03;;
12654;SDS011;6392;44.644;11.448;2022-10-23T07:11:34;24.33;;;14.50;;
12654;SDS011;6392;44.644;11.448;2022-10-23T07:14:01;26.47;;;14.63;;
12654;SDS011;6392;44.644;11.448;2022-10-23T07:16:28;25.00;;;14.53;;
12654;SDS011;6392;44.644;11.448;2022-10-23T07:18:58;30.80;;;15.80;;
12654;SDS011;6392;44.644;11.448;2022-10-23T07:21:26;27.53;;;14.63;;
12654;SDS011;6392;44.644;11.448;2022-10-23T07:23:53;29.07;;;16.47;;
12654;SDS011;6392;44.644;11.448;2022-10-23T07:26:20;27.30;;;15.90;;
12654;SDS011;6392;44.644;11.448;2022-10-23T07:28:47;30.97;;;16.13;;
12654;SDS011;6392;44.644;11.448;2022-10-23T07:31:19;32.20;;;16.27;;
12654;SDS011;6392;44.644;11.448;2022-10-23T07:33:46;28.43;;;15.07;;
12654;SDS011;6392;44.644;11.448;2022-10-23T07:36:15;31.97;;;17.07;;
12654;SDS011;6392;44.644;11.448;2022-10-23T07:38:42;33.90;;;16.10;;
12654;SDS011;6392;44.644;11.448;2022-10-23T07:41:10;29.57;;;16.37;;
12654;SDS011;6392;44.644;11.448;2022-10-23T07:43:37;29.00;;;15.47;;
12654;SDS011;6392;44.644;11.448;2022-10-23T07:46:04;36.80;;;17.77;;
12654;SDS011;6392;44.644;11.448;2022-10-23T07:48:33;26.47;;;14.73;;
12654;SDS011;6392;44.644;11.448;2022-10-23T07:51:01;30.70;;;15.93;;
12654;SDS011;6392;44.644;11.448;2022-10-23T07:53:33;26.07;;;14.23;;
12654;SDS011;6392;44.644;11.448;2022-10-23T07:56:01;26.73;;;16.00;;
12654;SDS011;6392;44.644;11.448;2022-10-23T07:58:29;27.20;;;15.70;;
12654;SDS011;6392;44.644;11.448;2022-10-23T08:00:57;28.90;;;16.00;;
12654;SDS011;6392;44.644;11.448;2022-10-23T08:03:26;29.80;;;14.83;;
12654;SDS011;6392;44.644;11.448;2022-10-23T08:05:56;29.23;;;15.17;;
12654;SDS011;6392;44.644;11.448;2022-10-23T08:08:24;25.17;;;15.03;;
12654;SDS011;6392;44.644;11.448;2022-10-23T08:10:53;28.33;;;16.47;;
12654;SDS011;6392;44.644;11.448;2022-10-23T08:13:21;27.60;;;15.57;;
12654;SDS011;6392;44.644;11.448;2022-10-23T08:15:49;27.83;;;15.63;;
12654;SDS011;6392;44.644;11.448;2022-10-23T08:18:16;29.77;;;15.70;;
12654;SDS011;6392;44.644;11.448;2022-10-23T08:20:44;26.30;;;14.83;;
12654;SDS011;6392;44.644;11.448;2022-10-23T08:23:15;24.00;;;15.43;;
12654;SDS011;6392;44.644;11.448;2022-10-23T08:25:43;26.97;;;15.63;;
12654;SDS011;6392;44.644;11.448;2022-10-23T08:28:12;31.70;;;17.23;;
12654;SDS011;6392;44.644;11.448;2022-10-23T08:30:40;26.67;;;15.80;;
12654;SDS011;6392;44.644;11.448;2022-10-23T08:33:08;27.90;;;17.20;;
12654;SDS011;6392;44.644;11.448;2022-10-23T08:35:35;30.70;;;15.50;;
12654;SDS011;6392;44.644;11.448;2022-10-23T08:38:03;36.87;;;23.17;;
12654;SDS011;6392;44.644;11.448;2022-10-23T08:40:30;28.77;;;18.27;;
12654;SDS011;6392;44.644;11.448;2022-10-23T08:42:58;28.37;;;15.97;;
12654;SDS011;6392;44.644;11.448;2022-10-23T08:45:32;29.90;;;15.13;;
12654;SDS011;6392;44.644;11.448;2022-10-23T08:48:07;26.37;;;14.93;;
12654;SDS011;6392;44.644;11.448;2022-10-23T08:50:40;23.20;;;12.87;;
12654;SDS011;6392;44.644;11.448;2022-10-23T08:53:11;27.83;;;14.67;;
12654;SDS011;6392;44.644;11.448;2022-10-23T08:55:46;25.70;;;15.73;;
12654;SDS011;6392;44.644;11.448;2022-10-23T08:58:19;31.37;;;16.47;;
12654;SDS011;6392;44.644;11.448;2022-10-23T09:00:54;25.87;;;14.27;;
12654;SDS011;6392;44.644;11.448;2022-10-23T09:03:21;30.23;;;16.27;;
12654;SDS011;6392;44.644;11.448;2022-10-23T09:05:56;28.67;;;14.70;;
12654;SDS011;6392;44.644;11.448;2022-10-23T09:08:36;27.70;;;17.00;;
12654;SDS011;6392;44.644;11.448;2022-10-23T09:11:14;30.23;;;16.07;;
12654;SDS011;6392;44.644;11.448;2022-10-23T09:13:49;27.50;;;15.63;;
12654;SDS011;6392;44.644;11.448;2022-10-23T09:16:50;31.07;;;16.70;;
12654;SDS011;6392;44.644;11.448;2022-10-23T09:19:29;25.63;;;16.13;;
12654;SDS011;6392;44.644;11.448;2022-10-23T09:21:56;25.60;;;16.43;;
12654;SDS011;6392;44.644;11.448;2022-10-23T09:24:25;26.83;;;14.93;;
12654;SDS011;6392;44.644;11.448;2022-10-23T09:26:55;24.30;;;14.10;;
12654;SDS011;6392;44.644;11.448;2022-10-23T09:29:23;23.90;;;14.50;;
12654;SDS011;6392;44.644;11.448;2022-10-23T09:31:54;25.97;;;15.30;;
12654;SDS011;6392;44.644;11.448;2022-10-23T09:34:23;29.33;;;15.50;;
12654;SDS011;6392;44.644;11.448;2022-10-23T09:36:53;24.40;;;15.33;;
12654;SDS011;6392;44.644;11.448;2022-10-23T09:39:22;24.03;;;14.20;;
12654;SDS011;6392;44.644;11.448;2022-10-23T09:41:52;27.20;;;14.83;;
12654;SDS011;6392;44.644;11.448;2022-10-23T09:44:20;28.03;;;15.40;;
12654;SDS011;6392;44.644;11.448;2022-10-23T09:46:49;23.83;;;16.03;;
12654;SDS011;6392;44.644;11.448;2022-10-23T09:49:20;27.20;;;15.00;;
12654;SDS011;6392;44.644;11.448;2022-10-23T09:51:50;24.80;;;14.70;;
12654;SDS011;6392;44.644;11.448;2022-10-23T09:54:21;25.33;;;15.47;;
12654;SDS011;6392;44.644;11.448;2022-10-23T09:56:49;21.13;;;13.77;;
12654;SDS011;6392;44.644;11.448;2022-10-23T09:59:20;22.87;;;14.90;;
12654;SDS011;6392;44.644;11.448;2022-10-23T10:01:51;25.20;;;14.70;;
12654;SDS011;6392;44.644;11.448;2022-10-23T10:04:31;20.90;;;14.37;;
12654;SDS011;6392;44.644;11.448;2022-10-23T10:06:59;24.53;;;14.40;;
12654;SDS011;6392;44.644;11.448;2022-10-23T10:09:27;21.07;;;13.93;;
12654;SDS011;6392;44.644;11.448;2022-10-23T10:11:55;20.30;;;14.00;;
12654;SDS011;6392;44.644;11.448;2022-10-23T10:14:30;20.67;;;13.30;;
12654;SDS011;6392;44.644;11.448;2022-10-23T10:17:10;26.07;;;13.13;;
12654;SDS011;6392;44.644;11.448;2022-10-23T10:19:48;19.77;;;13.93;;
12654;SDS011;6392;44.644;11.448;2022-10-23T10:22:32;18.30;;;12.50;;
12654;SDS011;6392;44.644;11.448;2022-10-23T10:25:07;22.83;;;13.73;;
12654;SDS011;6392;44.644;11.448;2022-10-23T10:27:43;23.90;;;12.77;;
12654;SDS011;6392;44.644;11.448;2022-10-23T10:30:18;20.87;;;14.07;;
12654;SDS011;6392;44.644;11.448;2022-10-23T10:32:49;22.33;;;13.37;;
12654;SDS011;6392;44.644;11.448;2022-10-23T10:35:27;21.83;;;12.53;;
12654;SDS011;6392;44.644;11.448;2022-10-23T10:38:08;21.40;;;13.67;;
12654;SDS011;6392;44.644;11.448;2022-10-23T10:40:45;21.33;;;13.47;;
12654;SDS011;6392;44.644;11.448;2022-10-23T10:43:26;19.20;;;13.60;;
12654;SDS011;6392;44.644;11.448;2022-10-23T10:45:59;20.43;;;11.70;;
12654;SDS011;6392;44.644;11.448;2022-10-23T10:48:36;20.37;;;13.40;;
12654;SDS011;6392;44.644;11.448;2022-10-23T10:51:09;20.07;;;12.40;;
12654;SDS011;6392;44.644;11.448;2022-10-23T10:53:44;16.00;;;11.37;;
12654;SDS011;6392;44.644;11.448;2022-10-23T10:56:18;20.17;;;12.07;;
12654;SDS011;6392;44.644;11.448;2022-10-23T10:58:49;19.10;;;11.00;;
12654;SDS011;6392;44.644;11.448;2022-10-23T11:01:19;16.37;;;10.03;;
12654;SDS011;6392;44.644;11.448;2022-10-23T11:03:52;20.33;;;10.70;;
12654;SDS011;6392;44.644;11.448;2022-10-23T11:06:25;19.53;;;10.93;;
12654;SDS011;6392;44.644;11.448;2022-10-23T11:08:55;17.67;;;9.73;;
12654;SDS011;6392;44.644;11.448;2022-10-23T11:11:26;16.13;;;9.37;;
12654;SDS011;6392;44.644;11.448;2022-10-23T11:13:58;15.97;;;8.73;;
12654;SDS011;6392;44.644;11.448;2022-10-23T11:16:26;13.80;;;9.33;;
12654;SDS011;6392;44.644;11.448;2022-10-23T11:18:59;14.30;;;9.43;;
12654;SDS011;6392;44.644;11.448;2022-10-23T11:21:34;18.57;;;9.03;;
12654;SDS011;6392;44.644;11.448;2022-10-23T11:27:12;15.67;;;9.57;;
12654;SDS011;6392;44.644;11.448;2022-10-23T11:30:03;15.20;;;9.37;;
12654;SDS011;6392;44.644;11.448;2022-10-23T11:33:04;12.63;;;7.70;;
12654;SDS011;6392;44.644;11.448;2022-10-23T11:36:05;13.17;;;9.10;;
12654;SDS011;6392;44.644;11.448;2022-10-23T11:38:40;12.13;;;8.00;;
12654;SDS011;6392;44.644;11.448;2022-10-23T11:41:16;12.13;;;7.93;;
12654;SDS011;6392;44.644;11.448;2022-10-23T11:43:46;10.07;;;7.17;;
12654;SDS011;6392;44.644;11.448;2022-10-23T11:46:27;11.70;;;7.57;;
12654;SDS011;6392;44.644;11.448;2022-10-23T11:48:55;12.43;;;7.07;;
12654;SDS011;6392;44.644;11.448;2022-10-23T11:51:27;9.87;;;7.37;;
12654;SDS011;6392;44.644;11.448;2022-10-23T11:54:07;11.03;;;7.90;;
12654;SDS011;6392;44.644;11.448;2022-10-23T11:56:53;10.77;;;6.90;;
12654;SDS011;6392;44.644;11.448;2022-10-23T11:59:38;12.57;;;7.50;;
12654;SDS011;6392;44.644;11.448;2022-10-23T12:02:20;10.07;;;6.73;;
12654;SDS011;6392;44.644;11.448;2022-10-23T12:04:56;8.53;;;6.60;;
12654;SDS011;6392;44.644;11.448;2022-10-23T12:07:27;9.23;;;5.93;;
12654;SDS011;6392;44.644;11.448;2022-10-23T12:09:58;12.23;;;7.87;;
12654;SDS011;6392;44.644;11.448;2022-10-23T12:12:29;12.67;;;7.00;;
12654;SDS011;6392;44.644;11.448;2022-10-23T12:17:50;14.27;;;7.80;;
12654;SDS011;6392;44.644;11.448;2022-10-23T12:20:26;9.07;;;6.37;;
12654;SDS011;6392;44.644;11.448;2022-10-23T12:23:16;10.27;;;6.60;;
12654;SDS011;6392;44.644;11.448;2022-10-23T12:25:59;11.63;;;7.23;;
12654;SDS011;6392;44.644;11.448;2022-10-23T12:28:38;9.60;;;5.70;;
12654;SDS011;6392;44.644;11.448;2022-10-23T12:31:15;10.77;;;5.83;;
12654;SDS011;6392;44.644;11.448;2022-10-23T12:33:52;9.97;;;6.00;;
12654;SDS011;6392;44.644;11.448;2022-10-23T12:36:38;8.83;;;5.77;;
12654;SDS011;6392;44.644;11.448;2022-10-23T12:39:24;9.83;;;5.83;;
12654;SDS011;6392;44.644;11.448;2022-10-23T12:41:56;9.63;;;6.43;;
12654;SDS011;6392;44.644;11.448;2022-10-23T12:44:25;10.97;;;6.10;;
12654;SDS011;6392;44.644;11.448;2022-10-23T12:46:53;11.40;;;6.10;;
12654;SDS011;6392;44.644;11.448;2022-10-23T12:49:24;11.90;;;6.20;;
12654;SDS011;6392;44.644;11.448;2022-10-23T12:51:53;9.23;;;6.47;;
12654;SDS011;6392;44.644;11.448;2022-10-23T12:54:22;11.57;;;6.20;;
12654;SDS011;6392;44.644;11.448;2022-10-23T12:56:49;9.70;;;6.30;;
12654;SDS011;6392;44.644;11.448;2022-10-23T12:59:19;9.20;;;5.77;;
12654;SDS011;6392;44.644;11.448;2022-10-23T13:01:50;9.73;;;5.63;;
12654;SDS011;6392;44.644;11.448;2022-10-23T13:04:21;9.30;;;6.50;;
12654;SDS011;6392;44.644;11.448;2022-10-23T13:06:53;10.40;;;7.07;;
12654;SDS011;6392;44.644;11.448;2022-10-23T13:09:22;12.73;;;6.20;;
12654;SDS011;6392;44.644;11.448;2022-10-23T13:11:53;11.23;;;6.03;;
12654;SDS011;6392;44.644;11.448;2022-10-23T13:14:30;12.60;;;6.53;;
12654;SDS011;6392;44.644;11.448;2022-10-23T13:17:03;9.77;;;5.70;;
12654;SDS011;6392;44.644;11.448;2022-10-23T13:19:31;9.40;;;6.00;;
12654;SDS011;6392;44.644;11.448;2022-10-23T13:21:59;10.90;;;7.03;;
12654;SDS011;6392;44.644;11.448;2022-10-23T13:24:29;6.83;;;5.10;;
12654;SDS011;6392;44.644;11.448;2022-10-23T13:26:57;12.53;;;6.50;;
12654;SDS011;6392;44.644;11.448;2022-10-23T13:29:25;10.60;;;5.77;;
12654;SDS011;6392;44.644;11.448;2022-10-23T13:32:07;8.93;;;5.70;;
12654;SDS011;6392;44.644;11.448;2022-10-23T13:34:35;9.33;;;5.67;;
12654;SDS011;6392;44.644;11.448;2022-10-23T13:37:03;9.97;;;5.70;;
12654;SDS011;6392;44.644;11.448;2022-10-23T13:39:57;8.80;;;5.73;;
12654;SDS011;6392;44.644;11.448;2022-10-23T13:42:25;9.10;;;6.03;;
12654;SDS011;6392;44.644;11.448;2022-10-23T13:44:52;12.13;;;5.83;;
12654;SDS011;6392;44.644;11.448;2022-10-23T13:47:21;8.67;;;6.00;;
12654;SDS011;6392;44.644;11.448;2022-10-23T13:49:48;15.67;;;6.17;;
12654;SDS011;6392;44.644;11.448;2022-10-23T13:52:16;14.57;;;7.03;;
12654;SDS011;6392;44.644;11.448;2022-10-23T13:54:47;9.93;;;6.13;;
12654;SDS011;6392;44.644;11.448;2022-10-23T13:57:14;9.70;;;6.27;;
12654;SDS011;6392;44.644;11.448;2022-10-23T13:59:42;10.30;;;5.83;;
12654;SDS011;6392;44.644;11.448;2022-10-23T14:02:14;10.90;;;6.30;;
12654;SDS011;6392;44.644;11.448;2022-10-23T14:04:46;12.70;;;5.90;;
12654;SDS011;6392;44.644;11.448;2022-10-23T14:07:13;8.03;;;5.60;;
12654;SDS011;6392;44.644;11.448;2022-10-23T14:09:40;11.20;;;5.90;;
12654;SDS011;6392;44.644;11.448;2022-10-23T14:12:08;11.33;;;6.53;;
12654;SDS011;6392;44.644;11.448;2022-10-23T14:14:36;10.33;;;6.40;;
12654;SDS011;6392;44.644;11.448;2022-10-23T14:17:03;10.33;;;6.13;;
12654;SDS011;6392;44.644;11.448;2022-10-23T14:19:31;10.40;;;6.00;;
12654;SDS011;6392;44.644;11.448;2022-10-23T14:22:00;8.17;;;5.60;;
12654;SDS011;6392;44.644;11.448;2022-10-23T14:24:27;11.57;;;6.33;;
12654;SDS011;6392;44.644;11.448;2022-10-23T14:26:54;9.60;;;5.50;;
12654;SDS011;6392;44.644;11.448;2022-10-23T14:29:21;9.63;;;5.60;;
12654;SDS011;6392;44.644;11.448;2022-10-23T14:31:48;9.03;;;5.97;;
12654;SDS011;6392;44.644;11.448;2022-10-23T14:34:16;11.17;;;5.93;;
12654;SDS011;6392;44.644;11.448;2022-10-23T14:36:43;9.17;;;6.07;;
12654;SDS011;6392;44.644;11.448;2022-10-23T14:39:11;8.13;;;6.13;;
12654;SDS011;6392;44.644;11.448;2022-10-23T14:41:38;8.97;;;6.13;;
12654;SDS011;6392;44.644;11.448;2022-10-23T14:44:05;10.03;;;5.60;;
12654;SDS011;6392;44.644;11.448;2022-10-23T14:46:32;8.30;;;5.17;;
12654;SDS011;6392;44.644;11.448;2022-10-23T14:49:02;8.53;;;5.83;;
12654;SDS011;6392;44.644;11.448;2022-10-23T14:51:29;11.90;;;5.50;;
12654;SDS011;6392;44.644;11.448;2022-10-23T14:53:57;13.47;;;6.33;;
12654;SDS011;6392;44.644;11.448;2022-10-23T14:56:28;8.37;;;5.20;;